Time;durP1;ratioP1;P1;durP2;ratioP2;P2;SDS_P1;SDS_P2;PMS_P1;PMS_P2;Temp;Humidity;BMP_temperature;BMP_pressure;BME280_temperature;BME280_humidity;BME280_pressure;Samples;Min_cycle;Max_cycle;Signal;HPM_P1;HPM_P2
2022/06/23 00:02:12;;;;;;;7.18;5.63;;;15.70;99.90;;;;;;5244751;28;20530;-74
2022/06/23 00:04:46;;;;;;;6.75;5.50;;;15.80;99.90;;;;;;5229280;28;20029;-74
2022/06/23 00:07:24;;;;;;;7.70;5.50;;;15.40;99.90;;;;;;5229252;28;20461;-75
2022/06/23 00:09:57;;;;;;;7.38;5.25;;;15.60;99.90;;;;;;5229103;28;20026;-74
2022/06/23 00:12:35;;;;;;;7.22;5.63;;;15.60;99.90;;;;;;5244514;28;20381;-75
2022/06/23 00:15:06;;;;;;;10.25;4.97;;;15.50;99.90;;;;;;5244312;28;20090;-75
2022/06/23 00:18:14;;;;;;;9.40;5.78;;;15.70;99.90;;;;;;5229158;28;20033;-74
2022/06/23 00:20:57;;;;;;;9.88;6.18;;;15.70;99.90;;;;;;5227625;28;20067;-75
2022/06/23 00:23:35;;;;;;;12.85;5.70;;;15.20;99.90;;;;;;5228799;28;20039;-75
2022/06/23 00:26:37;;;;;;;11.43;5.93;;;15.40;99.90;;;;;;5244370;28;20031;-74
2022/06/23 00:29:16;;;;;;;11.38;6.20;;;15.40;99.90;;;;;;5218513;28;20045;-74
2022/06/23 00:32:04;;;;;;;10.00;6.30;;;15.30;99.90;;;;;;5228859;28;20524;-74
2022/06/23 00:34:38;;;;;;;8.43;5.60;;;15.20;99.90;;;;;;5228668;28;20056;-74
2022/06/23 00:37:18;;;;;;;17.95;6.15;;;15.20;99.90;;;;;;5228735;28;20052;-75
2022/06/23 00:39:57;;;;;;;7.57;5.60;;;15.50;99.90;;;;;;5228636;28;20059;-74
2022/06/23 00:42:40;;;;;;;7.82;5.65;;;15.50;99.90;;;;;;5228467;28;20079;-75
2022/06/23 00:45:10;;;;;;;11.73;6.13;;;15.50;99.90;;;;;;5227014;28;20052;-74
2022/06/23 00:48:08;;;;;;;8.65;6.13;;;15.30;99.90;;;;;;5228324;28;20036;-75
2022/06/23 00:50:45;;;;;;;11.25;5.50;;;15.10;99.90;;;;;;5228372;28;20053;-75
2022/06/23 00:53:19;;;;;;;8.88;5.53;;;15.30;99.90;;;;;;5228354;28;20025;-74
2022/06/23 00:55:58;;;;;;;8.68;5.85;;;15.00;99.90;;;;;;5228775;28;20021;-75
2022/06/23 00:58:35;;;;;;;10.45;6.07;;;15.00;99.90;;;;;;5228518;28;20070;-75
2022/06/23 01:01:24;;;;;;;7.70;6.00;;;15.10;99.90;;;;;;5228262;28;20083;-75
2022/06/23 01:04:19;;;;;;;10.57;5.82;;;14.90;99.90;;;;;;5227788;28;20100;-74
2022/06/23 01:07:03;;;;;;;11.57;6.50;;;14.90;99.90;;;;;;5228220;28;20021;-74
2022/06/23 01:09:46;;;;;;;8.25;6.15;;;15.20;99.90;;;;;;5228020;28;20388;-75
2022/06/23 01:12:30;;;;;;;8.85;6.07;;;15.30;99.90;;;;;;5228220;28;20111;-76
2022/06/23 01:15:26;;;;;;;10.02;6.50;;;15.30;99.90;;;;;;5227886;28;20029;-75
2022/06/23 01:18:15;;;;;;;12.15;6.50;;;15.40;99.90;;;;;;5243342;28;20040;-75
2022/06/23 01:20:58;;;;;;;9.73;6.43;;;14.70;99.90;;;;;;5228067;28;20078;-74
2022/06/23 01:23:42;;;;;;;13.27;6.38;;;14.80;99.90;;;;;;5228025;28;20411;-76
2022/06/23 01:26:41;;;;;;;10.98;7.00;;;14.70;99.90;;;;;;5227855;28;20028;-75
2022/06/23 01:29:24;;;;;;;9.40;6.45;;;14.80;99.90;;;;;;5227556;28;20044;-75
2022/06/23 01:32:23;;;;;;;11.65;7.35;;;14.60;99.90;;;;;;5243148;28;20487;-74
2022/06/23 01:34:58;;;;;;;10.80;7.30;;;14.30;99.90;;;;;;5226737;28;20485;-75
2022/06/23 01:37:43;;;;;;;12.18;7.80;;;14.60;99.90;;;;;;5227689;28;20401;-75
2022/06/23 01:40:24;;;;;;;11.02;6.68;;;14.90;99.90;;;;;;5227752;28;20033;-75
2022/06/23 01:43:13;;;;;;;9.07;6.95;;;14.80;99.90;;;;;;5227777;28;20021;-74
2022/06/23 01:46:06;;;;;;;13.25;8.43;;;14.60;99.90;;;;;;5227400;28;20494;-74
2022/06/23 01:48:52;;;;;;;13.85;6.78;;;14.80;99.90;;;;;;5227419;28;20036;-75
2022/06/23 01:51:50;;;;;;;9.65;6.20;;;14.80;99.90;;;;;;5243084;28;20022;-74
2022/06/23 01:54:24;;;;;;;9.57;7.07;;;14.40;99.90;;;;;;5219305;28;20029;-75
2022/06/23 01:57:24;;;;;;;12.80;7.32;;;14.50;99.90;;;;;;5242918;28;20025;-75
2022/06/23 02:00:03;;;;;;;7.88;6.35;;;14.80;99.90;;;;;;5227588;28;20420;-75
2022/06/23 02:03:16;;;;;;;8.68;7.28;;;14.80;99.90;;;;;;5227453;28;20025;-75
2022/06/23 02:05:57;;;;;;;9.27;7.03;;;14.70;99.90;;;;;;5227277;28;20033;-75
2022/06/23 02:09:02;;;;;;;12.18;6.57;;;14.60;99.90;;;;;;5227381;28;20036;-74
2022/06/23 02:11:35;;;;;;;11.23;7.22;;;14.20;99.90;;;;;;5227576;28;20039;-74
2022/06/23 02:14:19;;;;;;;11.68;7.28;;;14.30;99.90;;;;;;5242482;28;20033;-74
2022/06/23 02:17:01;;;;;;;10.48;7.10;;;14.50;99.90;;;;;;5229577;28;20059;-74
2022/06/23 02:19:54;;;;;;;10.27;7.53;;;14.60;99.90;;;;;;5231692;28;20032;-74
2022/06/23 02:22:38;;;;;;;7.82;6.43;;;14.50;99.90;;;;;;5231247;28;20389;-75
2022/06/23 02:25:34;;;;;;;10.77;7.20;;;14.50;99.90;;;;;;5231276;28;20883;-75
2022/06/23 02:28:26;;;;;;;10.90;7.53;;;14.50;99.90;;;;;;5231054;28;20075;-75
2022/06/23 02:31:19;;;;;;;16.58;8.57;;;14.30;99.90;;;;;;5231211;28;20021;-75
2022/06/23 02:34:13;;;;;;;10.50;7.78;;;13.90;99.90;;;;;;5246454;28;20124;-75
2022/06/23 02:37:01;;;;;;;17.30;8.85;;;14.00;99.90;;;;;;5230951;28;20473;-75
2022/06/23 02:39:49;;;;;;;16.88;9.38;;;14.10;99.90;;;;;;5231126;28;20134;-75
2022/06/23 02:42:36;;;;;;;9.82;7.88;;;14.20;99.90;;;;;;5231071;28;20021;-75
2022/06/23 02:45:10;;;;;;;16.45;8.45;;;14.50;99.90;;;;;;5230697;28;20049;-75
2022/06/23 02:47:52;;;;;;;9.52;7.32;;;14.50;99.90;;;;;;5231064;28;20048;-75
2022/06/23 02:50:58;;;;;;;12.23;8.30;;;14.60;99.90;;;;;;5230749;28;20032;-75
2022/06/23 02:53:47;;;;;;;13.45;8.15;;;14.20;99.90;;;;;;5220741;28;20052;-75
2022/06/23 02:57:00;;;;;;;17.35;8.43;;;14.10;99.90;;;;;;5230597;28;20033;-74
2022/06/23 02:59:35;;;;;;;18.05;8.85;;;14.10;99.90;;;;;;5230375;28;20029;-75
2022/06/23 03:02:39;;;;;;;10.75;7.22;;;14.40;99.90;;;;;;5245979;28;20025;-75
2022/06/23 03:05:22;;;;;;;11.50;6.93;;;14.50;99.90;;;;;;5230434;28;20028;-75
2022/06/23 03:08:03;;;;;;;10.40;7.80;;;14.30;99.90;;;;;;5230398;28;20037;-75
2022/06/23 03:10:41;;;;;;;10.90;8.70;;;14.00;99.90;;;;;;5245660;28;20465;-74
2022/06/23 03:13:47;;;;;;;11.38;7.43;;;14.00;99.90;;;;;;5229990;28;20025;-74
2022/06/23 03:16:23;;;;;;;13.45;7.25;;;14.30;99.90;;;;;;5230338;28;20033;-74
2022/06/23 03:19:02;;;;;;;10.50;7.25;;;14.50;99.90;;;;;;5226206;28;20044;-75
2022/06/23 03:21:51;;;;;;;10.73;7.10;;;14.50;99.90;;;;;;5230184;28;20059;-75
2022/06/23 03:24:28;;;;;;;10.65;7.32;;;14.70;99.90;;;;;;5230097;28;20025;-75
2022/06/23 03:27:13;;;;;;;8.45;6.00;;;14.00;99.90;;;;;;5229823;28;20063;-75
2022/06/23 03:29:55;;;;;;;9.77;6.57;;;14.60;99.90;;;;;;5245424;28;20044;-75
2022/06/23 03:32:46;;;;;;;11.82;6.30;;;14.70;99.90;;;;;;5229996;28;20017;-74
2022/06/23 03:35:22;;;;;;;12.70;7.30;;;14.70;99.90;;;;;;5229848;28;20039;-74
2022/06/23 03:38:04;;;;;;;9.68;7.32;;;15.00;99.90;;;;;;5245160;28;20512;-75
2022/06/23 03:43:58;;;;;;;12.40;6.40;;;14.80;99.90;;;;;;5229904;28;20025;-74
2022/06/23 03:46:38;;;;;;;10.80;7.13;;;15.10;99.90;;;;;;5244911;28;20053;-74
2022/06/23 03:49:46;;;;;;;11.95;6.78;;;15.10;99.90;;;;;;5229445;28;20036;-75
2022/06/23 03:52:37;;;;;;;10.13;6.90;;;15.00;99.90;;;;;;5244873;28;20032;-75
2022/06/23 03:55:38;;;;;;;8.63;5.50;;;15.20;99.90;;;;;;5229689;28;20389;-75
2022/06/23 03:58:22;;;;;;;9.50;5.00;;;14.80;99.90;;;;;;5244865;28;20032;-75
2022/06/23 04:01:16;;;;;;;9.95;5.60;;;14.90;99.90;;;;;;5229394;28;20381;-75
2022/06/23 04:03:57;;;;;;;10.10;5.72;;;15.50;99.90;;;;;;5229338;28;20385;-75
2022/06/23 04:06:32;;;;;;;12.48;5.43;;;15.20;99.90;;;;;;5229352;28;20017;-75
2022/06/23 04:09:32;;;;;;;7.18;4.90;;;15.50;99.90;;;;;;5229097;28;20040;-75
2022/06/23 04:12:11;;;;;;;;;;;15.70;99.90;;;;;;5244727;28;20354;-75
2022/06/23 04:14:52;;;;;;;12.15;6.28;;;15.80;99.90;;;;;;5228638;28;19909;-75
2022/06/23 04:17:28;;;;;;;11.50;6.57;;;16.00;99.90;;;;;;5229217;28;20112;-75
2022/06/23 04:20:08;;;;;;;9.13;5.35;;;16.00;99.90;;;;;;5228966;28;20021;-75
2022/06/23 04:22:48;;;;;;;10.18;6.30;;;16.70;99.90;;;;;;5228858;28;20425;-75
2022/06/23 04:25:22;;;;;;;10.65;6.28;;;16.60;99.90;;;;;;5244361;28;20025;-74
2022/06/23 04:27:59;;;;;;;7.95;5.82;;;17.10;99.90;;;;;;5228795;28;20040;-74
2022/06/23 04:30:39;;;;;;;9.88;6.15;;;17.00;99.90;;;;;;5244258;28;20028;-74
2022/06/23 04:33:18;;;;;;;11.98;6.50;;;17.30;99.90;;;;;;5228808;28;20029;-75
2022/06/23 04:35:58;;;;;;;7.37;5.07;;;17.10;99.90;;;;;;5228362;28;20024;-74
2022/06/23 04:38:37;;;;;;;9.35;5.57;;;17.40;99.90;;;;;;5228439;28;20314;-74
2022/06/23 04:41:23;;;;;;;10.20;4.63;;;17.70;99.90;;;;;;5244325;28;20388;-74
2022/06/23 04:44:06;;;;;;;9.27;4.75;;;17.70;99.90;;;;;;5228466;28;20029;-76
2022/06/23 04:46:50;;;;;;;6.90;4.60;;;17.90;99.90;;;;;;5228385;28;20107;-75
2022/06/23 04:49:45;;;;;;;9.45;4.82;;;18.00;99.90;;;;;;5228384;28;20469;-74
2022/06/23 04:52:19;;;;;;;8.07;4.65;;;17.80;99.90;;;;;;5228417;28;20021;-75
2022/06/23 04:55:09;;;;;;;10.50;5.15;;;18.00;99.90;;;;;;5228518;28;20428;-75
2022/06/23 04:57:40;;;;;;;;;;;18.20;99.90;;;;;;5229054;28;20029;-75
2022/06/23 05:00:25;;;;;;;6.45;4.53;;;18.20;99.90;;;;;;5227206;28;19927;-75
2022/06/23 05:03:03;;;;;;;10.45;4.70;;;17.90;99.90;;;;;;5228120;28;20029;-75
2022/06/23 05:05:36;;;;;;;7.38;4.70;;;18.00;99.90;;;;;;5228273;28;20021;-75
2022/06/23 05:08:26;;;;;;;8.82;4.82;;;18.30;99.90;;;;;;5228163;28;20437;-74
2022/06/23 05:11:05;;;;;;;7.78;5.13;;;18.20;99.90;;;;;;5227915;28;20021;-74
2022/06/23 05:13:44;;;;;;;7.33;4.80;;;18.40;99.90;;;;;;5227861;28;20036;-75
2022/06/23 05:16:26;;;;;;;7.93;5.15;;;18.50;99.90;;;;;;5227661;28;20416;-74
2022/06/23 05:19:03;;;;;;;6.32;4.70;;;18.80;99.90;;;;;;5227757;28;20025;-75
2022/06/23 05:21:41;;;;;;;9.23;5.25;;;19.00;99.90;;;;;;5227895;28;20515;-76
2022/06/23 05:24:21;;;;;;;11.05;5.72;;;19.00;99.90;;;;;;5227943;28;20025;-74
2022/06/23 05:27:13;;;;;;;8.70;5.32;;;19.10;99.90;;;;;;5227795;28;20021;-75
2022/06/23 05:29:54;;;;;;;11.68;5.28;;;19.10;99.90;;;;;;5227670;28;20041;-75
2022/06/23 05:32:37;;;;;;;9.77;5.50;;;18.90;99.90;;;;;;5227713;28;20017;-74
2022/06/23 05:35:37;;;;;;;14.00;6.78;;;19.10;99.90;;;;;;5227828;28;20037;-75
2022/06/23 05:38:23;;;;;;;9.05;5.45;;;19.10;99.90;;;;;;5227668;28;20025;-75
2022/06/23 05:41:02;;;;;;;7.60;4.75;;;19.20;99.90;;;;;;5227635;28;20381;-75
2022/06/23 05:43:39;;;;;;;10.30;5.10;;;19.20;99.90;;;;;;5227576;28;20036;-75
2022/06/23 05:46:20;;;;;;;8.35;4.95;;;19.40;99.90;;;;;;5227384;28;20060;-75
2022/06/23 05:49:26;;;;;;;8.20;4.65;;;19.00;99.90;;;;;;5227482;28;20476;-74
2022/06/23 05:51:59;;;;;;;5.93;3.80;;;19.50;99.90;;;;;;5229733;28;20131;-75
2022/06/23 05:54:53;;;;;;;7.43;3.85;;;20.00;99.90;;;;;;5231858;28;20086;-75
2022/06/23 05:57:29;;;;;;;5.40;3.67;;;20.10;99.90;;;;;;5231803;28;20033;-75
2022/06/23 06:00:15;;;;;;;9.52;3.63;;;20.70;99.90;;;;;;5231647;28;20021;-74
2022/06/23 06:03:15;;;;;;;6.75;3.60;;;21.10;99.90;;;;;;5247105;28;20029;-75
2022/06/23 06:05:51;;;;;;;12.70;4.05;;;21.50;99.90;;;;;;5229323;28;20067;-75
2022/06/23 06:11:32;;;;;;;;;;;22.10;99.90;;;;;;5232162;28;20052;-75
2022/06/23 06:14:04;;;;;;;11.98;3.50;;;22.20;99.90;;;;;;5230071;28;19908;-75
2022/06/23 06:16:34;;;;;;;10.73;3.80;;;22.40;99.90;;;;;;5231456;28;20112;-75
2022/06/23 06:19:05;;;;;;;11.10;4.10;;;22.70;99.90;;;;;;5246637;28;20115;-75
2022/06/23 06:21:36;;;;;;;8.45;3.70;;;22.80;99.90;;;;;;5231207;28;20017;-75
2022/06/23 06:24:21;;;;;;;9.90;3.40;;;22.90;99.90;;;;;;5231113;28;20028;-75
2022/06/23 06:26:54;;;;;;;14.90;3.55;;;23.20;99.90;;;;;;5231450;28;20029;-75
2022/06/23 06:29:31;;;;;;;9.85;3.40;;;23.50;99.90;;;;;;5231047;28;20036;-74
2022/06/23 06:32:10;;;;;;;10.10;3.33;;;23.60;99.90;;;;;;5246767;28;20028;-76
2022/06/23 06:34:44;;;;;;;;;;;23.60;99.90;;;;;;5231447;28;20032;-75
2022/06/23 06:37:16;;;;;;;11.15;3.20;;;24.00;99.90;;;;;;5230942;28;19905;-75
2022/06/23 06:39:53;;;;;;;8.65;3.40;;;24.30;99.90;;;;;;5246397;28;20023;-75
2022/06/23 06:42:29;;;;;;;8.63;3.15;;;24.40;99.90;;;;;;5230961;28;20053;-74
2022/06/23 06:45:05;;;;;;;8.10;2.88;;;24.50;99.90;;;;;;5230706;28;20052;-75
2022/06/23 06:47:37;;;;;;;8.05;3.00;;;24.40;99.90;;;;;;5230731;28;20040;-75
2022/06/23 06:50:44;;;;;;;10.98;2.92;;;24.30;99.90;;;;;;5230602;28;20036;-75
2022/06/23 06:53:50;;;;;;;7.80;2.63;;;24.40;99.90;;;;;;5230574;28;20051;-75
2022/06/23 06:56:27;;;;;;;7.85;3.20;;;24.20;99.90;;;;;;5226600;28;20033;-75
2022/06/23 06:59:16;;;;;;;7.30;4.00;;;24.20;99.90;;;;;;5230603;28;20035;-75
2022/06/23 07:02:07;;;;;;;;;;;24.40;99.90;;;;;;5230386;28;20564;-75
2022/06/23 07:04:54;;;;;;;7.03;3.35;;;24.60;99.90;;;;;;5221891;28;20372;-76
2022/06/23 07:07:32;;;;;;;10.45;3.83;;;24.50;99.90;;;;;;5230347;28;20017;-75
2022/06/23 07:10:16;;;;;;;8.27;3.25;;;24.60;99.90;;;;;;5230323;28;20025;-75
2022/06/23 07:13:00;;;;;;;10.40;3.50;;;24.70;99.90;;;;;;5230248;28;20045;-75
2022/06/23 07:15:37;;;;;;;7.25;2.90;;;24.90;99.90;;;;;;5245626;28;20040;-75
2022/06/23 07:18:08;;;;;;;9.10;2.88;;;25.10;99.90;;;;;;5230186;28;20059;-75
2022/06/23 07:21:01;;;;;;;8.73;3.70;;;25.10;99.90;;;;;;5230126;28;20017;-75
2022/06/23 07:23:46;;;;;;;10.32;3.38;;;24.90;99.90;;;;;;5229990;28;20036;-76
2022/06/23 07:27:04;;;;;;;6.63;3.10;;;24.80;99.90;;;;;;5230046;28;20021;-75
2022/06/23 07:29:48;;;;;;;8.25;3.03;;;24.60;99.90;;;;;;5228443;28;20392;-76
2022/06/23 07:32:29;;;;;;;9.60;3.22;;;25.10;99.90;;;;;;5245300;28;20021;-75
2022/06/23 07:35:13;;;;;;;7.97;3.55;;;25.40;99.90;;;;;;5229712;28;20112;-75
2022/06/23 07:38:12;;;;;;;10.32;3.28;;;25.60;99.90;;;;;;5229987;28;20033;-75
2022/06/23 07:40:55;;;;;;;6.75;3.30;;;25.80;99.90;;;;;;5229674;28;20021;-75
2022/06/23 07:43:37;;;;;;;12.30;2.92;;;25.90;99.90;;;;;;5229731;28;20068;-75
2022/06/23 07:46:08;;;;;;;12.95;3.55;;;25.60;99.90;;;;;;5244828;28;20082;-75
2022/06/23 07:48:39;;;;;;;7.38;2.90;;;24.90;99.90;;;;;;5229239;28;20029;-76
2022/06/23 07:51:11;;;;;;;7.05;3.38;;;25.00;99.90;;;;;;5229407;28;20477;-75
2022/06/23 07:53:47;;;;;;;9.68;3.13;;;25.40;99.90;;;;;;5229419;28;20020;-75
2022/06/23 07:56:22;;;;;;;12.45;3.42;;;25.90;99.90;;;;;;5229701;28;20108;-75
2022/06/23 07:58:57;;;;;;;7.50;3.08;;;26.20;99.90;;;;;;5229324;28;20611;-76
2022/06/23 08:01:37;;;;;;;7.32;3.28;;;26.20;99.90;;;;;;5229362;28;20025;-75
2022/06/23 08:04:12;;;;;;;6.28;2.60;;;25.50;99.90;;;;;;5229114;28;20028;-75
2022/06/23 08:06:44;;;;;;;7.75;2.95;;;25.40;99.90;;;;;;5244682;28;20024;-75
2022/06/23 08:09:30;;;;;;;7.80;2.63;;;25.90;99.90;;;;;;5229039;28;20040;-75
2022/06/23 08:18:04;;;;;;;7.95;2.65;;;26.30;99.90;;;;;;5229316;28;20412;-75
2022/06/23 08:20:40;;;;;;;8.55;2.75;;;26.40;99.90;;;;;;5227781;28;20472;-75
2022/06/23 08:23:12;;;;;;;8.30;3.10;;;26.40;99.90;;;;;;5228990;28;20025;-75
2022/06/23 08:25:44;;;;;;;6.88;2.60;;;26.70;99.90;;;;;;5228577;28;20477;-75
2022/06/23 08:28:15;;;;;;;8.63;2.88;;;26.70;99.90;;;;;;5243962;28;20029;-75
2022/06/23 08:30:48;;;;;;;8.02;2.70;;;26.80;99.90;;;;;;5228443;28;20094;-75
2022/06/23 08:33:18;;;;;;;7.22;2.60;;;26.80;99.90;;;;;;5228639;28;20053;-75
2022/06/23 08:35:52;;;;;;;7.00;2.08;;;27.00;99.90;;;;;;5228556;28;20414;-75
2022/06/23 08:38:31;;;;;;;8.70;3.08;;;27.20;99.90;;;;;;5228585;28;20021;-76
2022/06/23 08:41:08;;;;;;;9.68;2.60;;;27.20;99.90;;;;;;5243908;28;20033;-75
2022/06/23 08:43:51;;;;;;;7.97;2.70;;;26.80;99.90;;;;;;5228337;28;20517;-75
2022/06/23 08:46:45;;;;;;;7.47;2.80;;;26.80;99.90;;;;;;5228438;28;20059;-75
2022/06/23 08:49:16;;;;;;;7.22;2.70;;;26.20;99.90;;;;;;5228162;28;20044;-76
2022/06/23 08:52:02;;;;;;;12.27;2.83;;;26.80;99.90;;;;;;5228275;28;20104;-75
2022/06/23 08:54:43;;;;;;;7.82;2.72;;;25.70;99.90;;;;;;5228227;28;20104;-76
2022/06/23 08:57:31;;;;;;;13.00;2.53;;;26.60;99.90;;;;;;5227490;28;20037;-75
2022/06/23 09:00:21;;;;;;;5.82;2.53;;;26.60;99.90;;;;;;5226871;28;20492;-75
2022/06/23 09:03:09;;;;;;;11.70;2.72;;;26.80;99.90;;;;;;5210008;28;20395;-76
2022/06/23 09:05:59;;;;;;;6.35;2.30;;;27.00;99.90;;;;;;5227967;28;20044;-75
2022/06/23 09:08:55;;;;;;;10.85;3.20;;;26.30;99.90;;;;;;5226767;28;20124;-75
2022/06/23 09:11:54;;;;;;;6.32;2.40;;;27.00;99.90;;;;;;5227932;28;20420;-75
2022/06/23 09:14:51;;;;;;;11.35;2.90;;;27.10;99.90;;;;;;5226651;28;20116;-75
2022/06/23 09:17:35;;;;;;;9.82;2.80;;;27.20;99.90;;;;;;5227945;28;20029;-75
2022/06/23 09:20:19;;;;;;;5.55;2.60;;;26.60;99.90;;;;;;5227824;28;20021;-75
2022/06/23 09:23:08;;;;;;;8.65;2.88;;;26.30;99.90;;;;;;5227789;28;20473;-75
2022/06/23 09:26:00;;;;;;;11.07;2.72;;;26.80;99.90;;;;;;5227560;28;20040;-76
2022/06/23 09:28:37;;;;;;;10.93;2.78;;;27.00;99.90;;;;;;5226329;28;20028;-75
2022/06/23 09:31:26;;;;;;;7.65;3.00;;;26.10;99.90;;;;;;5227440;28;20127;-75
2022/06/23 09:33:57;;;;;;;;;;;26.70;99.90;;;;;;5227864;28;20025;-75
2022/06/23 09:36:58;;;;;;;9.45;2.58;;;26.90;99.90;;;;;;5226191;28;19927;-75
2022/06/23 09:39:47;;;;;;;8.35;2.72;;;27.30;99.90;;;;;;5227582;28;20033;-75
2022/06/23 09:42:32;;;;;;;5.93;2.80;;;27.70;99.90;;;;;;5226186;28;20074;-76
2022/06/23 09:45:23;;;;;;;9.63;2.80;;;27.40;99.90;;;;;;5227312;28;20059;-75
2022/06/23 09:48:03;;;;;;;8.20;2.70;;;27.40;99.90;;;;;;5227568;28;20048;-75
2022/06/23 09:50:58;;;;;;;6.07;2.88;;;26.70;99.90;;;;;;5227360;28;20100;-75
2022/06/23 09:53:51;;;;;;;7.47;2.70;;;26.70;99.90;;;;;;5227470;28;20036;-75
2022/06/23 09:57:07;;;;;;;7.55;2.65;;;26.30;99.90;;;;;;5227269;28;20024;-75
2022/06/23 10:00:00;;;;;;;7.38;3.08;;;26.30;99.90;;;;;;5224153;28;20040;-75
2022/06/23 10:03:08;;;;;;;15.30;2.70;;;26.90;99.90;;;;;;5227313;28;20036;-75
2022/06/23 10:06:14;;;;;;;15.98;2.60;;;27.00;99.90;;;;;;5227290;28;20056;-75
2022/06/23 10:09:11;;;;;;;10.85;3.05;;;27.40;99.90;;;;;;5227100;28;20094;-75
2022/06/23 10:11:48;;;;;;;13.88;2.70;;;27.40;99.90;;;;;;5227341;28;20334;-76
2022/06/23 10:14:34;;;;;;;6.80;2.63;;;27.80;99.90;;;;;;5227347;28;20021;-75
2022/06/23 10:17:07;;;;;;;5.90;2.45;;;26.90;99.90;;;;;;5227008;28;20036;-75
2022/06/23 10:20:14;;;;;;;5.65;2.50;;;27.10;99.90;;;;;;5227293;28;20025;-75
2022/06/23 10:23:03;;;;;;;8.13;2.53;;;26.50;99.90;;;;;;5227106;28;20021;-75
2022/06/23 10:26:05;;;;;;;7.90;2.80;;;26.30;99.90;;;;;;5225988;28;20056;-75
2022/06/23 10:28:54;;;;;;;9.35;2.60;;;26.20;99.90;;;;;;5227018;28;20033;-75
2022/06/23 10:31:47;;;;;;;10.70;2.70;;;26.60;99.90;;;;;;5225734;28;20527;-75
2022/06/23 10:34:33;;;;;;;5.50;2.83;;;26.50;99.90;;;;;;5226846;28;20469;-75
2022/06/23 10:37:13;;;;;;;10.13;2.83;;;26.50;99.90;;;;;;5227554;28;20021;-76
2022/06/23 10:39:53;;;;;;;9.00;3.10;;;27.10;99.90;;;;;;5229611;28;20120;-75
2022/06/23 10:42:32;;;;;;;5.95;2.40;;;26.80;99.90;;;;;;5230628;28;20096;-75
2022/06/23 10:45:09;;;;;;;;;;;26.20;99.90;;;;;;5229532;28;20049;-74
2022/06/23 10:47:55;;;;;;;7.65;2.78;;;26.50;99.90;;;;;;5230536;28;19909;-75
2022/06/23 10:50:34;;;;;;;10.07;2.97;;;26.00;99.90;;;;;;5230670;28;20037;-76
2022/06/23 10:53:11;;;;;;;12.52;2.90;;;26.00;99.90;;;;;;5230627;28;20025;-75
2022/06/23 10:56:06;;;;;;;7.47;2.45;;;26.00;99.90;;;;;;5230561;28;20373;-75
2022/06/23 10:58:58;;;;;;;10.07;3.20;;;25.90;99.90;;;;;;5229230;28;20485;-75
2022/06/23 11:01:48;;;;;;;8.75;2.80;;;25.80;99.90;;;;;;5229171;28;20501;-75
2022/06/23 11:04:27;;;;;;;6.65;2.80;;;25.30;99.90;;;;;;5229072;28;20040;-75
2022/06/23 11:07:13;;;;;;;;;;;25.30;99.90;;;;;;5230762;28;20115;-75
2022/06/23 11:10:02;;;;;;;4.53;3.00;;;25.30;99.90;;;;;;5229045;28;19917;-75
2022/06/23 11:12:52;;;;;;;;;;;25.30;99.90;;;;;;5229421;28;20040;-75
2022/06/23 11:15:35;;;;;;;7.22;3.30;;;25.00;99.90;;;;;;5228845;28;20408;-75
2022/06/23 11:18:10;;;;;;;12.85;3.55;;;25.10;99.90;;;;;;5230102;28;20060;-75
2022/06/23 11:21:05;;;;;;;9.57;3.30;;;25.20;99.90;;;;;;5230261;28;20362;-75
2022/06/23 11:23:49;;;;;;;5.88;3.08;;;25.30;99.90;;;;;;5230070;28;20029;-76
2022/06/23 11:26:37;;;;;;;9.80;3.38;;;25.10;99.90;;;;;;5228726;28;20476;-75
2022/06/23 11:29:31;;;;;;;11.05;3.20;;;24.70;99.90;;;;;;5229749;28;20568;-75
2022/06/23 11:32:32;;;;;;;9.15;3.33;;;25.00;99.90;;;;;;5229839;28;20025;-76
2022/06/23 11:35:06;;;;;;;8.40;3.00;;;24.80;99.90;;;;;;5229747;28;20033;-75
2022/06/23 11:38:08;;;;;;;8.43;3.13;;;25.30;99.90;;;;;;5229841;28;20024;-76
2022/06/23 11:40:45;;;;;;;12.80;3.50;;;25.30;99.90;;;;;;5229817;28;20405;-75
2022/06/23 11:43:31;;;;;;;9.23;3.30;;;25.40;99.90;;;;;;5229654;28;20033;-75
2022/06/23 11:46:19;;;;;;;15.10;4.68;;;25.00;99.90;;;;;;5229256;28;20503;-76
2022/06/23 11:49:16;;;;;;;12.57;4.90;;;25.30;99.90;;;;;;5228337;28;20040;-75
2022/06/23 11:52:10;;;;;;;13.00;5.43;;;25.50;99.90;;;;;;5229415;28;20029;-75
2022/06/23 11:55:06;;;;;;;9.93;5.38;;;25.80;99.90;;;;;;5229440;28;20033;-75
2022/06/23 11:58:01;;;;;;;11.55;5.15;;;25.80;99.90;;;;;;5229414;28;20526;-75
2022/06/23 12:00:59;;;;;;;12.35;4.65;;;25.70;99.90;;;;;;5229202;28;20095;-75
2022/06/23 12:04:07;;;;;;;11.90;4.78;;;25.80;99.90;;;;;;5229395;28;20017;-75
2022/06/23 12:07:01;;;;;;;15.15;4.70;;;25.80;99.90;;;;;;5229259;28;20059;-75
2022/06/23 12:10:05;;;;;;;11.60;3.72;;;25.30;99.90;;;;;;5229245;28;20056;-75
2022/06/23 12:12:37;;;;;;;7.85;3.35;;;25.30;99.90;;;;;;5227763;28;20178;-75
2022/06/23 12:15:09;;;;;;;10.32;3.50;;;25.50;99.90;;;;;;5228959;28;20486;-75
2022/06/23 12:17:44;;;;;;;10.38;4.15;;;25.80;99.90;;;;;;5228887;28;20037;-75
2022/06/23 12:20:33;;;;;;;14.18;3.55;;;25.90;99.90;;;;;;5228891;28;20029;-75
2022/06/23 12:23:35;;;;;;;10.80;4.35;;;26.60;99.90;;;;;;5227425;28;20029;-75
2022/06/23 12:26:24;;;;;;;16.85;4.57;;;26.50;99.90;;;;;;5228784;28;20087;-75
2022/06/23 12:29:27;;;;;;;9.82;4.57;;;26.40;99.90;;;;;;5227529;28;20037;-75
2022/06/23 12:32:10;;;;;;;8.38;3.75;;;26.60;99.90;;;;;;5227436;28;20025;-75
2022/06/23 12:35:02;;;;;;;12.15;3.67;;;26.50;99.90;;;;;;5228609;28;20032;-76
2022/06/23 12:37:47;;;;;;;7.15;2.90;;;26.20;99.90;;;;;;5228428;28;20040;-75
2022/06/23 12:40:24;;;;;;;8.05;3.00;;;25.70;99.90;;;;;;5228698;28;20052;-75
2022/06/23 12:43:08;;;;;;;10.55;3.00;;;25.30;99.90;;;;;;5228294;28;20024;-75
2022/06/23 12:45:50;;;;;;;10.02;2.90;;;26.10;99.90;;;;;;5228249;28;20558;-76
2022/06/23 12:48:33;;;;;;;10.00;3.08;;;25.90;99.90;;;;;;5228334;28;20370;-75
2022/06/23 12:51:27;;;;;;;9.45;2.80;;;26.10;99.90;;;;;;5228230;28;20060;-76
2022/06/23 12:54:13;;;;;;;8.05;2.60;;;26.10;99.90;;;;;;5228390;28;20024;-75
2022/06/23 12:57:10;;;;;;;9.30;2.90;;;25.50;99.90;;;;;;5228327;28;20029;-75
2022/06/23 12:59:47;;;;;;;7.68;2.83;;;26.00;99.90;;;;;;5227583;28;20033;-76
2022/06/23 13:02:33;;;;;;;9.73;3.00;;;25.60;99.90;;;;;;5228120;28;20071;-76
2022/06/23 13:05:27;;;;;;;9.68;2.65;;;25.70;99.90;;;;;;5226670;28;20477;-75
2022/06/23 13:08:09;;;;;;;10.23;3.10;;;25.90;99.90;;;;;;5226605;28;20033;-76
2022/06/23 13:11:03;;;;;;;7.32;2.90;;;25.70;99.90;;;;;;5227834;28;20435;-75
2022/06/23 13:13:34;;;;;;;11.15;3.00;;;25.90;99.90;;;;;;5226594;28;20037;-76
2022/06/23 13:16:50;;;;;;;10.00;3.10;;;25.70;99.90;;;;;;5227927;28;20079;-75
2022/06/23 13:19:33;;;;;;;4.97;2.72;;;26.00;99.90;;;;;;5164049;28;20023;-75
2022/06/23 13:22:06;;;;;;;10.93;2.50;;;25.90;99.90;;;;;;5222244;28;20041;-75
2022/06/23 13:24:42;;;;;;;6.50;2.85;;;25.90;99.90;;;;;;5227600;28;20023;-76
2022/06/23 13:27:20;;;;;;;7.05;2.55;;;26.20;99.90;;;;;;5227943;28;20052;-75
2022/06/23 13:30:05;;;;;;;6.82;2.70;;;26.60;99.90;;;;;;5227326;28;20057;-75
2022/06/23 13:33:01;;;;;;;7.57;2.30;;;26.50;99.90;;;;;;5227548;28;20024;-75
2022/06/23 13:35:58;;;;;;;9.60;3.10;;;25.90;99.90;;;;;;5219079;28;20037;-75
2022/06/23 13:38:56;;;;;;;6.68;2.35;;;25.70;99.90;;;;;;5226328;28;20059;-75
2022/06/23 13:41:38;;;;;;;9.10;3.25;;;25.40;99.90;;;;;;5227577;28;20072;-75
2022/06/23 13:44:19;;;;;;;8.70;2.75;;;25.20;99.90;;;;;;5227530;28;20147;-76
2022/06/23 13:47:01;;;;;;;9.27;2.75;;;25.60;99.90;;;;;;5227314;28;20080;-75
2022/06/23 13:49:47;;;;;;;9.93;2.85;;;25.90;99.90;;;;;;5227371;28;20091;-76
2022/06/23 13:52:48;;;;;;;10.88;2.50;;;26.00;99.90;;;;;;5227401;28;20021;-75
2022/06/23 13:55:39;;;;;;;9.52;2.38;;;25.60;99.90;;;;;;5226148;28;20029;-76
2022/06/23 13:58:39;;;;;;;8.38;2.67;;;26.20;99.90;;;;;;5226821;28;20090;-75
2022/06/23 14:01:22;;;;;;;7.55;2.80;;;25.90;99.90;;;;;;5227114;28;20503;-75
2022/06/23 14:04:17;;;;;;;6.13;2.72;;;25.70;99.90;;;;;;5227165;28;20100;-76
2022/06/23 14:06:56;;;;;;;7.22;2.90;;;25.90;99.90;;;;;;5227297;28;20025;-75
2022/06/23 14:10:13;;;;;;;7.22;2.42;;;25.60;99.90;;;;;;5227096;28;20041;-75
2022/06/23 14:13:12;;;;;;;9.75;3.72;;;25.30;99.90;;;;;;5225822;28;20525;-75
2022/06/23 14:16:04;;;;;;;8.85;3.25;;;25.00;99.90;;;;;;5225596;28;20561;-75
2022/06/23 14:19:02;;;;;;;9.25;2.70;;;25.10;99.90;;;;;;5230172;28;20484;-75
2022/06/23 14:21:47;;;;;;;9.50;2.60;;;25.00;99.90;;;;;;5220523;28;20549;-75
2022/06/23 14:24:31;;;;;;;7.55;2.30;;;25.10;99.90;;;;;;5229966;28;20476;-75
2022/06/23 14:27:19;;;;;;;5.35;2.53;;;25.00;99.90;;;;;;5231206;28;20032;-76
2022/06/23 14:30:19;;;;;;;5.20;2.35;;;24.50;99.90;;;;;;5231064;28;20033;-75
2022/06/23 14:32:59;;;;;;;9.95;2.40;;;24.80;99.90;;;;;;5231228;28;20075;-76